Time;durP1;ratioP1;P1;durP2;ratioP2;P2;SDS_P1;SDS_P2;PMS_P1;PMS_P2;Temp;Humidity;BMP_temperature;BMP_pressure;BME280_temperature;BME280_humidity;BME280_pressure;Samples;Min_cycle;Max_cycle;Signal;HPM_P1;HPM_P2
2022/03/21 00:01:56;;;;;;;;;;;;;;;22.59;23.10;102977.05;104650;1309;72676;-86
2022/03/21 00:04:41;;;;;;;;;;;;;;;22.59;23.15;102976.52;104598;1309;73835;-83
2022/03/21 00:07:07;;;;;;;;;;;;;;;22.59;23.08;102972.96;104663;1308;60489;-85
2022/03/21 00:10:01;;;;;;;;;;;;;;;22.59;22.97;102971.86;104674;1309;60452;-84
2022/03/21 00:12:33;;;;;;;;;;;;;;;22.58;23.07;102969.41;104578;1307;72788;-88
2022/03/21 00:15:16;;;;;;;;;;;;;;;22.59;22.90;102967.23;104601;1308;74035;-81
2022/03/21 00:18:02;;;;;;;;;;;;;;;22.59;23.24;102969.75;104600;1308;60348;-88
2022/03/21 00:20:30;;;;;;;;;;;;;;;22.58;23.37;102962.23;104652;1308;60487;-84
2022/03/21 00:23:21;;;;;;;;;;;;;;;22.59;23.14;102956.28;104550;1308;71521;-84
2022/03/21 00:26:14;;;;;;;;;;;;;;;22.59;23.05;102962.02;104587;1309;72908;-86
2022/03/21 00:28:42;;;;;;;;;;;;;;;22.59;22.93;102956.45;104676;1307;61670;-82
2022/03/21 00:31:39;;;;;;;;;;;;;;;22.59;23.16;102961.30;104312;1315;60350;-84
2022/03/21 00:34:13;;;;;;;;;;;;;;;22.59;23.30;102961.48;104273;1315;73192;-85
2022/03/21 00:36:44;;;;;;;;;;;;;;;22.59;23.21;102964.34;104215;1315;74107;-82
2022/03/21 00:39:21;;;;;;;;;;;;;;;22.59;23.04;102961.10;104253;1314;60914;-83
2022/03/21 00:41:51;;;;;;;;;;;;;;;22.59;23.11;102957.38;104247;1313;61693;-86
2022/03/21 00:44:17;;;;;;;;;;;;;;;22.59;23.25;102956.47;104222;1314;74130;-86
2022/03/21 00:47:14;;;;;;;;;;;;;;;22.59;23.09;102955.21;104216;1314;72648;-84
2022/03/21 00:49:56;;;;;;;;;;;;;;;22.59;23.25;102950.36;103928;1314;60623;-85
2022/03/21 00:52:29;;;;;;;;;;;;;;;22.59;23.20;102954.30;104311;1315;60563;-86
2022/03/21 00:55:00;;;;;;;;;;;;;;;22.58;23.14;102952.89;104223;1314;73962;-85
2022/03/21 00:57:29;;;;;;;;;;;;;;;22.59;23.21;102952.16;104228;1314;74037;-83
2022/03/21 01:00:08;;;;;;;;;;;;;;;22.58;23.02;102942.33;104268;1315;60694;-84
2022/03/21 01:02:50;;;;;;;;;;;;;;;22.58;23.10;102940.70;104309;1315;60609;-85
2022/03/21 01:05:22;;;;;;;;;;;;;;;22.58;23.05;102937.29;104242;1314;72650;-84
2022/03/21 01:07:59;;;;;;;;;;;;;;;22.58;23.07;102934.60;104194;1314;74778;-83
2022/03/21 01:10:38;;;;;;;;;;;;;;;22.57;23.12;102933.55;104664;1309;60493;-84
2022/03/21 01:13:18;;;;;;;;;;;;;;;22.58;23.04;102930.11;104525;1309;61418;-85
2022/03/21 01:15:53;;;;;;;;;;;;;;;22.58;23.03;102931.91;104562;1309;74076;-83
2022/03/21 01:18:21;;;;;;;;;;;;;;;22.58;23.05;102928.66;104686;1309;73757;-82
2022/03/21 01:20:53;;;;;;;;;;;;;;;22.58;23.02;102927.96;104510;1309;60338;-87
2022/03/21 01:23:25;;;;;;;;;;;;;;;22.58;23.07;102929.58;104696;1309;60550;-83
2022/03/21 01:26:11;;;;;;;;;;;;;;;22.58;23.19;102926.73;104567;1309;72629;-83
2022/03/21 01:28:39;;;;;;;;;;;;;;;22.58;23.11;102924.00;104576;1307;73846;-83
2022/03/21 01:31:28;;;;;;;;;;;;;;;22.58;23.11;102926.54;104566;1309;61325;-83
2022/03/21 01:33:54;;;;;;;;;;;;;;;22.58;23.24;102927.60;104696;1309;60617;-82
2022/03/21 01:36:41;;;;;;;;;;;;;;;;;;;;;
2022/03/21 01:39:36;;;;;;;;;;;;;;;22.58;23.10;102917.39;104604;1309;73967;-83
2022/03/21 01:42:18;;;;;;;;;;;;;;;;;;;;;
2022/03/21 01:44:58;;;;;;;;;;;;;;;22.58;23.22;102916.31;104669;1309;61387;-82
2022/03/21 01:47:26;;;;;;;;;;;;;;;22.58;23.06;102919.70;104479;1309;73956;-82
2022/03/21 01:50:12;;;;;;;;;;;;;;;22.58;23.15;102919.34;104554;1309;74457;-84
2022/03/21 01:52:41;;;;;;;;;;;;;;;22.58;23.07;102915.04;104562;1308;60367;-83
2022/03/21 01:55:51;;;;;;;;;;;;;;;22.58;23.20;102922.38;104675;1309;60568;-86
2022/03/21 01:58:29;;;;;;;;;;;;;;;;;;;;;
2022/03/21 02:01:23;;;;;;;;;;;;;;;22.58;23.08;102906.62;104683;1309;73980;-84
2022/03/21 02:03:58;;;;;;;;;;;;;;;22.58;23.12;102913.97;104683;1308;60455;-83
2022/03/21 02:06:48;;;;;;;;;;;;;;;22.58;23.02;102914.33;104661;1309;60501;-85
2022/03/21 02:09:16;;;;;;;;;;;;;;;22.57;23.11;102914.54;104594;1307;73058;-84
2022/03/21 02:11:42;;;;;;;;;;;;;;;22.57;23.33;102916.88;104579;1309;75103;-85
2022/03/21 02:14:35;;;;;;;;;;;;;;;22.57;23.10;102919.02;104619;1309;60963;-85
2022/03/21 02:17:16;;;;;;;;;;;;;;;22.58;23.18;102923.13;104673;1307;60422;-89
2022/03/21 02:20:07;;;;;;;;;;;;;;;22.58;23.04;102920.08;104564;1308;71766;-82
2022/03/21 02:23:01;;;;;;;;;;;;;;;22.58;23.13;102917.20;104600;1309;74060;-82
2022/03/21 02:25:32;;;;;;;;;;;;;;;22.58;23.14;102922.05;104343;1313;60711;-83
2022/03/21 02:28:23;;;;;;;;;;;;;;;22.58;23.34;102919.90;104343;1313;60395;-86
2022/03/21 02:31:08;;;;;;;;;;;;;;;22.57;23.16;102920.98;104358;1313;73212;-84
2022/03/21 02:34:16;;;;;;;;;;;;;;;;;;;;;
2022/03/21 02:37:02;;;;;;;;;;;;;;;22.58;23.14;102920.23;103618;1319;61112;-83
2022/03/21 02:39:33;;;;;;;;;;;;;;;22.58;23.05;102920.60;103627;1319;60565;-81
2022/03/21 02:42:22;;;;;;;;;;;;;;;22.58;23.08;102920.61;103611;1319;71989;-82
2022/03/21 02:45:00;;;;;;;;;;;;;;;;;;;;;
2022/03/21 02:48:03;;;;;;;;;;;;;;;22.58;22.96;102928.52;103489;1319;61240;-84
2022/03/21 02:50:55;;;;;;;;;;;;;;;22.58;23.05;102930.30;103656;1319;61383;-83
2022/03/21 02:53:44;;;;;;;;;;;;;;;22.58;23.08;102934.95;103488;1320;72580;-86
2022/03/21 02:56:34;;;;;;;;;;;;;;;22.58;23.09;102939.44;103623;1319;74059;-84
2022/03/21 02:59:09;;;;;;;;;;;;;;;22.58;23.15;102941.23;103441;1320;61365;-82
2022/03/21 03:02:07;;;;;;;;;;;;;;;22.59;23.19;102941.58;103667;1315;60492;-84
2022/03/21 03:04:56;;;;;;;;;;;;;;;;;;;;;
2022/03/21 03:07:42;;;;;;;;;;;;;;;22.58;23.16;102939.27;103647;1319;73157;-83
2022/03/21 03:10:17;;;;;;;;;;;;;;;22.58;23.12;102935.69;103593;1319;60477;-84
2022/03/21 03:13:07;;;;;;;;;;;;;;;22.58;23.08;102933.18;103488;1321;60572;-90
2022/03/21 03:16:12;;;;;;;;;;;;;;;22.58;23.01;102934.95;103812;1318;71421;-92
2022/03/21 03:18:44;;;;;;;;;;;;;;;22.58;22.97;102936.92;103858;1318;75196;-82
2022/03/21 03:21:14;;;;;;;;;;;;;;;22.58;23.01;102932.45;103696;1319;60628;-84
2022/03/21 03:24:22;;;;;;;;;;;;;;;22.57;23.10;102932.67;103666;1317;60507;-82
2022/03/21 03:26:55;;;;;;;;;;;;;;;22.57;23.05;102935.88;103822;1317;72683;-83
2022/03/21 03:29:28;;;;;;;;;;;;;;;22.57;23.01;102933.20;103837;1317;75125;-83
2022/03/21 03:32:03;;;;;;;;;;;;;;;22.57;23.21;102933.91;103825;1317;61648;-83
2022/03/21 03:34:49;;;;;;;;;;;;;;;22.58;23.23;102933.54;103839;1317;61261;-81
2022/03/21 03:37:18;;;;;;;;;;;;;;;22.57;23.23;102934.45;103513;1319;72902;-83
2022/03/21 03:40:08;;;;;;;;;;;;;;;22.57;23.19;102938.02;103814;1319;74059;-83
2022/03/21 03:42:47;;;;;;;;;;;;;;;;;;;;;
2022/03/21 03:45:28;;;;;;;;;;;;;;;22.57;23.00;102946.15;104379;1311;61212;-82
2022/03/21 03:48:05;;;;;;;;;;;;;;;22.57;23.10;102944.52;104390;1311;71820;-86
2022/03/21 03:50:37;;;;;;;;;;;;;;;22.56;22.95;102945.43;104490;1309;74437;-85
2022/03/21 03:53:05;;;;;;;;;;;;;;;22.56;23.03;102941.31;104724;1309;62315;-83
2022/03/21 03:56:14;;;;;;;;;;;;;;;22.56;23.14;102944.57;104592;1309;61216;-85
2022/03/21 03:58:45;;;;;;;;;;;;;;;22.56;22.88;102947.45;104350;1313;72648;-84
2022/03/21 04:01:22;;;;;;;;;;;;;;;;;;;;;
2022/03/21 04:04:01;;;;;;;;;;;;;;;22.56;23.02;102945.10;104318;1313;61397;-83
2022/03/21 04:06:30;;;;;;;;;;;;;;;22.56;23.09;102944.73;104313;1313;61539;-86
2022/03/21 04:09:03;;;;;;;;;;;;;;;22.56;23.10;102947.78;104299;1312;73973;-83
2022/03/21 04:11:38;;;;;;;;;;;;;;;22.56;22.97;102949.23;104313;1313;74548;-85
2022/03/21 04:14:09;;;;;;;;;;;;;;;22.56;23.22;102945.83;104310;1315;61211;-85
2022/03/21 04:16:50;;;;;;;;;;;;;;;22.56;23.11;102946.55;104363;1313;61455;-84
2022/03/21 04:19:24;;;;;;;;;;;;;;;22.56;23.10;102944.76;104308;1315;74245;-86
2022/03/21 04:22:27;;;;;;;;;;;;;;;22.54;23.07;102941.77;104234;1315;74881;-82
2022/03/21 04:24:58;;;;;;;;;;;;;;;22.53;23.04;102939.86;104353;1315;60783;-81
2022/03/21 04:27:29;;;;;;;;;;;;;;;22.52;23.08;102940.98;104298;1315;61293;-83
2022/03/21 04:30:00;;;;;;;;;;;;;;;22.52;23.01;102944.58;104284;1314;73961;-81
2022/03/21 04:32:35;;;;;;;;;;;;;;;22.52;23.14;102942.61;104333;1313;75877;-82
2022/03/21 04:35:10;;;;;;;;;;;;;;;22.51;23.05;102944.61;104319;1315;61425;-85
2022/03/21 04:37:58;;;;;;;;;;;;;;;22.51;23.03;102945.87;104686;1308;61619;-85
2022/03/21 04:40:23;;;;;;;;;;;;;;;22.50;23.00;102943.73;104681;1309;73850;-84
2022/03/21 04:43:09;;;;;;;;;;;;;;;22.50;23.05;102942.67;104531;1309;74905;-85
2022/03/21 04:45:37;;;;;;;;;;;;;;;22.50;22.94;102943.59;104589;1309;61170;-83
2022/03/21 04:48:13;;;;;;;;;;;;;;;22.50;22.94;102943.23;104562;1308;61140;-82
2022/03/21 04:50:49;;;;;;;;;;;;;;;22.50;22.93;102945.20;104639;1308;73681;-84
2022/03/21 04:53:38;;;;;;;;;;;;;;;22.50;22.87;102943.02;104686;1309;75791;-81
2022/03/21 04:56:13;;;;;;;;;;;;;;;22.50;22.84;102941.26;104635;1308;61374;-82
2022/03/21 04:58:48;;;;;;;;;;;;;;;22.50;22.92;102946.08;104535;1308;61527;-83
2022/03/21 05:01:17;;;;;;;;;;;;;;;22.50;22.77;102944.27;104539;1309;73871;-84
2022/03/21 05:03:47;;;;;;;;;;;;;;;22.50;22.85;102945.55;104519;1309;75870;-86
2022/03/21 05:06:25;;;;;;;;;;;;;;;22.50;22.85;102950.20;104602;1308;61315;-84
2022/03/21 05:08:59;;;;;;;;;;;;;;;22.49;22.90;102948.61;104550;1307;62192;-84
2022/03/21 05:11:30;;;;;;;;;;;;;;;22.48;22.78;102949.92;104504;1309;73838;-82
2022/03/21 05:14:19;;;;;;;;;;;;;;;22.47;22.56;102946.41;104551;1309;73465;-84
2022/03/21 05:17:05;;;;;;;;;;;;;;;22.46;22.66;102947.72;104529;1308;61284;-84
2022/03/21 05:19:44;;;;;;;;;;;;;;;22.44;22.73;102948.67;104550;1309;61244;-83
2022/03/21 05:22:21;;;;;;;;;;;;;;;22.42;22.65;102948.76;104455;1309;72565;-86
2022/03/21 05:30:59;;;;;;;;;;;;;;;22.39;22.61;102946.17;104197;1313;61314;-86
2022/03/21 05:36:34;;;;;;;;;;;;;;;22.39;22.14;102950.16;104078;1313;75793;-81
2022/03/21 05:39:00;;;;;;;;;;;;;;;22.37;22.13;102945.55;104102;1313;61316;-82
2022/03/21 05:41:26;;;;;;;;;;;;;;;22.35;22.04;102947.25;104064;1311;61512;-82
2022/03/21 05:43:55;;;;;;;;;;;;;;;22.34;21.98;102952.69;104029;1314;61803;-82
2022/03/21 05:46:22;;;;;;;;;;;;;;;22.31;21.72;102953.50;104057;1314;75901;-81
2022/03/21 05:48:58;;;;;;;;;;;;;;;22.28;21.80;102952.55;104053;1314;61294;-81
2022/03/21 05:51:31;;;;;;;;;;;;;;;22.25;21.68;102958.44;104042;1315;61594;-80
2022/03/21 05:54:02;;;;;;;;;;;;;;;22.21;21.70;102958.42;103950;1313;72854;-79
2022/03/21 05:56:27;;;;;;;;;;;;;;;22.17;21.64;102959.46;103880;1314;75928;-79
2022/03/21 05:58:53;;;;;;;;;;;;;;;22.13;21.69;102959.27;103825;1312;59890;-79
2022/03/21 06:01:22;;;;;;;;;;;;;;;22.08;21.51;102961.46;104065;1312;61705;-79
2022/03/21 06:03:49;;;;;;;;;;;;;;;22.01;21.64;102965.31;104322;1306;73013;-80
2022/03/21 06:06:19;;;;;;;;;;;;;;;21.95;21.35;102970.05;104486;1309;75872;-80
2022/03/21 06:08:45;;;;;;;;;;;;;;;21.91;21.33;102969.50;104377;1308;61290;-80
2022/03/21 06:11:12;;;;;;;;;;;;;;;21.89;21.21;102973.68;104361;1309;61193;-79
2022/03/21 06:13:39;;;;;;;;;;;;;;;21.87;21.14;102974.15;104162;1307;61254;-80
2022/03/21 06:16:06;;;;;;;;;;;;;;;21.88;21.31;102976.24;104255;1306;75749;-80
2022/03/21 06:18:32;;;;;;;;;;;;;;;21.89;21.12;102976.91;104198;1308;61441;-80
2022/03/21 06:21:01;;;;;;;;;;;;;;;21.89;21.04;102976.19;104165;1306;61239;-80
2022/03/21 06:23:30;;;;;;;;;;;;;;;21.90;21.01;102974.75;104219;1309;72699;-80
2022/03/21 06:25:55;;;;;;;;;;;;;;;21.92;21.05;102977.17;104368;1309;76939;-80
2022/03/21 06:28:21;;;;;;;;;;;;;;;21.97;20.88;102980.04;104399;1309;61278;-80
2022/03/21 06:30:47;;;;;;;;;;;;;;;22.02;20.79;102978.55;104358;1309;59902;-80
2022/03/21 06:33:12;;;;;;;;;;;;;;;22.07;20.74;102977.08;104441;1309;59477;-80
2022/03/21 06:35:39;;;;;;;;;;;;;;;22.09;20.46;102974.52;104397;1306;61128;-81
2022/03/21 06:38:04;;;;;;;;;;;;;;;22.08;20.52;102972.20;104425;1309;61403;-81
2022/03/21 06:40:30;;;;;;;;;;;;;;;22.09;20.57;102973.40;104496;1307;61394;-83
2022/03/21 06:42:56;;;;;;;;;;;;;;;22.10;20.52;102975.89;104283;1309;60651;-81
2022/03/21 06:45:22;;;;;;;;;;;;;;;22.12;20.52;102974.19;103748;1309;899471;-83
2022/03/21 06:47:47;;;;;;;;;;;;;;;22.14;20.50;102972.88;104385;1307;60340;-81
2022/03/21 06:50:13;;;;;;;;;;;;;;;22.16;20.26;102976.02;104461;1307;61266;-81
2022/03/21 06:52:39;;;;;;;;;;;;;;;22.18;20.29;102971.81;104481;1308;61276;-81
2022/03/21 06:55:07;;;;;;;;;;;;;;;22.21;20.34;102973.31;104459;1308;61247;-82
2022/03/21 06:57:33;;;;;;;;;;;;;;;22.15;20.20;102974.63;104439;1309;72945;-81
2022/03/21 06:59:58;;;;;;;;;;;;;;;22.09;20.11;102968.77;104398;1309;60170;-82
2022/03/21 07:02:24;;;;;;;;;;;;;;;22.06;20.34;102973.91;104497;1309;61322;-82
2022/03/21 07:04:50;;;;;;;;;;;;;;;22.06;20.27;102973.35;104323;1307;59724;-80
2022/03/21 07:07:17;;;;;;;;;;;;;;;22.08;20.28;102977.58;103767;1307;61445;-81
2022/03/21 07:09:42;;;;;;;;;;;;;;;22.08;20.10;102976.70;103693;1309;61272;-81
2022/03/21 07:12:09;;;;;;;;;;;;;;;22.04;20.20;102980.46;103973;1309;61353;-80
2022/03/21 07:14:34;;;;;;;;;;;;;;;22.08;20.16;102983.17;104484;1309;61737;-81
2022/03/21 07:17:09;;;;;;;;;;;;;;;22.12;20.26;102981.39;104458;1307;61380;-80
2022/03/21 07:19:34;;;;;;;;;;;;;;;22.17;20.13;102984.40;104516;1306;72019;-80
2022/03/21 07:22:00;;;;;;;;;;;;;;;22.23;20.20;102985.94;104323;1309;61468;-81
2022/03/21 07:24:26;;;;;;;;;;;;;;;22.28;20.07;102983.21;104572;1306;60364;-80
2022/03/21 07:26:52;;;;;;;;;;;;;;;22.32;20.25;102981.82;104332;1308;61200;-80
2022/03/21 07:29:17;;;;;;;;;;;;;;;22.34;20.07;102980.63;104506;1306;61118;-81
2022/03/21 07:31:43;;;;;;;;;;;;;;;22.37;20.03;102984.85;104496;1306;61390;-80
2022/03/21 07:34:08;;;;;;;;;;;;;;;22.40;20.29;102973.58;104539;1306;74592;-80
2022/03/21 07:36:34;;;;;;;;;;;;;;;22.42;20.17;102972.98;104541;1308;61383;-82
2022/03/21 07:39:00;;;;;;;;;;;;;;;22.42;20.20;102976.02;104451;1308;61265;-80
2022/03/21 07:41:26;;;;;;;;;;;;;;;22.41;19.89;102974.27;104463;1307;59519;-81
2022/03/21 07:43:54;;;;;;;;;;;;;;;22.39;19.99;102971.14;103981;1309;61302;-80
2022/03/21 07:49:04;;;;;;;;;;;;;;;22.38;20.02;102965.63;104174;1306;61488;-79
2022/03/21 07:51:29;;;;;;;;;;;;;;;22.35;19.86;102962.33;103957;1309;61489;-81
2022/03/21 07:53:55;;;;;;;;;;;;;;;22.29;19.65;102960.77;103918;1307;61288;-82
2022/03/21 07:56:21;;;;;;;;;;;;;;;21.91;19.58;102962.88;104024;1306;63656;-80
2022/03/21 07:58:48;;;;;;;;;;;;;;;21.59;19.48;102958.04;104248;1306;61389;-80
2022/03/21 08:01:14;;;;;;;;;;;;;;;21.44;19.77;102958.79;103846;1306;61144;-82
2022/03/21 08:03:39;;;;;;;;;;;;;;;21.44;19.77;102954.11;103782;1309;61409;-81
2022/03/21 08:06:10;;;;;;;;;;;;;;;21.35;19.73;102953.93;104019;1309;61499;-81
2022/03/21 08:08:37;;;;;;;;;;;;;;;21.23;19.80;102954.76;105119;1307;61226;-80
2022/03/21 08:11:03;;;;;;;;;;;;;;;21.17;19.87;102959.48;104336;1306;59671;-81
2022/03/21 08:13:29;;;;;;;;;;;;;;;21.16;19.85;102954.67;105317;1308;59521;-80
2022/03/21 08:15:56;;;;;;;;;;;;;;;21.17;19.87;102958.36;105258;1306;59733;-81
2022/03/21 08:18:21;;;;;;;;;;;;;;;21.11;19.73;102959.13;105376;1306;59450;-81
2022/03/21 08:20:47;;;;;;;;;;;;;;;20.99;19.76;102961.58;104688;1306;61311;-81
2022/03/21 08:23:13;;;;;;;;;;;;;;;20.90;19.88;102952.66;104364;1309;61348;-81
2022/03/21 08:25:39;;;;;;;;;;;;;;;20.87;19.82;102955.44;104422;1307;61346;-81
2022/03/21 08:28:08;;;;;;;;;;;;;;;20.89;19.92;102954.22;104456;1309;61261;-80
2022/03/21 08:30:35;;;;;;;;;;;;;;;20.86;19.86;102945.75;104371;1307;61280;-80
2022/03/21 08:33:02;;;;;;;;;;;;;;;20.92;19.79;102948.39;104338;1309;61319;-80
2022/03/21 08:35:28;;;;;;;;;;;;;;;20.97;19.79;102949.46;104272;1309;75117;-80
2022/03/21 08:37:53;;;;;;;;;;;;;;;21.00;20.04;102953.09;104427;1308;61244;-79
2022/03/21 08:40:19;;;;;;;;;;;;;;;21.06;20.04;102945.36;104178;1308;61407;-80
2022/03/21 08:42:45;;;;;;;;;;;;;;;21.13;20.09;102942.25;104175;1309;60144;-80
2022/03/21 08:45:12;;;;;;;;;;;;;;;21.19;20.11;102942.89;104392;1309;61356;-81
2022/03/21 08:47:38;;;;;;;;;;;;;;;21.27;20.29;102939.74;104403;1309;61289;-81
2022/03/21 08:50:03;;;;;;;;;;;;;;;21.33;20.29;102935.23;104365;1306;61312;-81
2022/03/21 08:52:29;;;;;;;;;;;;;;;21.35;20.26;102935.32;104508;1308;59484;-82
2022/03/21 08:54:54;;;;;;;;;;;;;;;20.97;19.63;102931.20;104491;1307;73881;-80
2022/03/21 08:57:20;;;;;;;;;;;;;;;20.54;19.50;102925.75;104477;1307;61412;-80
2022/03/21 08:59:47;;;;;;;;;;;;;;;20.40;19.79;102923.38;104380;1306;62221;-80
2022/03/21 09:02:14;;;;;;;;;;;;;;;20.25;19.76;102920.47;105288;1306;60596;-81
2022/03/21 09:04:39;;;;;;;;;;;;;;;20.24;19.90;102915.88;104979;1307;59096;-81
2022/03/21 09:07:05;;;;;;;;;;;;;;;20.20;19.99;102915.48;105222;1306;59432;-81
2022/03/21 09:09:31;;;;;;;;;;;;;;;20.22;20.18;102918.42;105168;1308;59469;-81
2022/03/21 09:11:57;;;;;;;;;;;;;;;20.35;20.40;102913.34;105252;1306;59528;-81
2022/03/21 09:14:22;;;;;;;;;;;;;;;20.48;20.46;102914.87;104950;1306;61660;-80
2022/03/21 09:16:50;;;;;;;;;;;;;;;20.61;20.35;102920.14;105275;1306;59769;-80
2022/03/21 09:19:16;;;;;;;;;;;;;;;20.63;20.42;102911.64;104696;1306;75829;-80
2022/03/21 09:21:43;;;;;;;;;;;;;;;20.60;20.28;102913.91;104484;1306;61390;-81
2022/03/21 09:24:10;;;;;;;;;;;;;;;20.68;20.41;102911.31;104532;1307;59965;-80
2022/03/21 09:26:35;;;;;;;;;;;;;;;20.76;20.47;102903.86;105320;1306;72691;-81
2022/03/21 09:29:03;;;;;;;;;;;;;;;20.86;20.51;102907.80;105244;1306;59568;-81
2022/03/21 09:31:29;;;;;;;;;;;;;;;20.96;20.47;102906.17;104904;1307;59719;-81
2022/03/21 09:33:54;;;;;;;;;;;;;;;21.04;20.54;102904.79;104494;1306;61301;-81
2022/03/21 09:36:29;;;;;;;;;;;;;;;21.09;20.59;102903.18;104429;1306;61262;-81
2022/03/21 09:38:54;;;;;;;;;;;;;;;21.09;20.33;102897.63;104505;1307;75593;-82
2022/03/21 09:41:25;;;;;;;;;;;;;;;20.98;20.13;102888.73;104422;1307;61354;-84
2022/03/21 09:43:56;;;;;;;;;;;;;;;20.90;20.14;102890.98;104552;1306;62398;-81
2022/03/21 09:46:21;;;;;;;;;;;;;;;20.73;19.71;102896.81;104393;1306;73880;-82
2022/03/21 09:48:48;;;;;;;;;;;;;;;20.53;20.02;102888.73;104414;1307;61368;-81
2022/03/21 09:51:13;;;;;;;;;;;;;;;20.53;19.97;102886.07;104472;1307;60021;-81
2022/03/21 09:53:39;;;;;;;;;;;;;;;20.42;19.82;102888.59;104422;1308;59932;-80
2022/03/21 09:56:07;;;;;;;;;;;;;;;20.18;19.74;102881.20;104402;1308;61473;-81
2022/03/21 09:58:34;;;;;;;;;;;;;;;20.14;19.82;102877.81;104532;1305;60246;-81
2022/03/21 10:01:00;;;;;;;;;;;;;;;20.14;19.97;102878.66;104623;1306;61300;-81
2022/03/21 10:03:27;;;;;;;;;;;;;;;20.12;19.98;102870.67;104494;1307;61137;-80
2022/03/21 10:05:53;;;;;;;;;;;;;;;19.75;19.61;102872.23;105054;1306;59521;-81
2022/03/21 10:08:23;;;;;;;;;;;;;;;19.56;19.69;102865.37;105227;1306;59259;-81
2022/03/21 10:10:52;;;;;;;;;;;;;;;19.45;19.61;102866.09;105211;1307;61075;-81
2022/03/21 10:13:18;;;;;;;;;;;;;;;19.50;19.71;102860.38;105190;1306;61216;-82
2022/03/21 10:15:44;;;;;;;;;;;;;;;19.66;19.94;102859.87;104935;1307;59409;-83
2022/03/21 10:18:13;;;;;;;;;;;;;;;19.82;19.99;102854.55;104461;1306;61361;-81
2022/03/21 10:20:39;;;;;;;;;;;;;;;19.96;19.89;102842.46;104453;1306;61467;-82
2022/03/21 10:23:34;;;;;;;;;;;;;;;20.09;20.07;102848.09;104382;1306;61575;-81
2022/03/21 10:26:00;;;;;;;;;;;;;;;20.26;20.14;102837.14;104162;1312;73807;-80
2022/03/21 10:28:37;;;;;;;;;;;;;;;20.37;20.32;102836.55;104088;1312;59737;-81
2022/03/21 10:31:09;;;;;;;;;;;;;;;20.47;20.21;102836.89;104215;1313;60300;-82
2022/03/21 10:33:34;;;;;;;;;;;;;;;20.56;20.46;102827.83;104098;1312;61470;-81
2022/03/21 10:36:06;;;;;;;;;;;;;;;20.61;20.20;102827.11;104076;1312;61468;-81
2022/03/21 10:38:35;;;;;;;;;;;;;;;20.60;20.39;102824.10;103984;1312;74730;-81
2022/03/21 10:41:10;;;;;;;;;;;;;;;20.66;20.29;102820.81;103722;1312;61175;-81
2022/03/21 10:43:38;;;;;;;;;;;;;;;20.74;20.39;102814.29;103837;1312;61174;-81
2022/03/21 10:46:04;;;;;;;;;;;;;;;20.78;20.30;102810.74;104110;1312;61414;-80
2022/03/21 10:48:30;;;;;;;;;;;;;;;20.66;20.18;102810.99;104053;1312;61299;-81
2022/03/21 10:50:59;;;;;;;;;;;;;;;20.59;20.18;102805.16;104099;1311;61324;-81
2022/03/21 10:53:24;;;;;;;;;;;;;;;20.53;20.02;102798.23;103975;1313;61612;-80
2022/03/21 10:56:05;;;;;;;;;;;;;;;20.45;20.02;102791.21;103367;1312;61424;-80
2022/03/21 10:58:34;;;;;;;;;;;;;;;20.20;19.80;102791.77;102996;1312;73622;-80
2022/03/21 11:01:09;;;;;;;;;;;;;;;19.85;19.39;102790.30;104068;1312;61234;-79
2022/03/21 11:03:40;;;;;;;;;;;;;;;19.54;19.40;102775.23;104636;1306;60532;-80
2022/03/21 11:06:05;;;;;;;;;;;;;;;19.61;19.61;102774.99;104469;1308;73855;-83
2022/03/21 11:08:30;;;;;;;;;;;;;;;19.71;19.44;102771.81;104447;1306;60213;-82
2022/03/21 11:10:56;;;;;;;;;;;;;;;19.80;19.51;102773.48;104270;1306;60138;-82
2022/03/21 11:13:21;;;;;;;;;;;;;;;19.92;19.62;102768.80;104584;1306;60000;-82
2022/03/21 11:15:48;;;;;;;;;;;;;;;20.02;19.77;102770.23;104515;1306;61280;-81
2022/03/21 11:18:13;;;;;;;;;;;;;;;20.08;19.71;102763.21;104649;1309;72691;-81
2022/03/21 11:20:44;;;;;;;;;;;;;;;20.19;19.87;102759.08;104441;1306;61296;-82
2022/03/21 11:23:09;;;;;;;;;;;;;;;20.25;19.86;102759.03;104503;1306;61247;-82
2022/03/21 11:25:37;;;;;;;;;;;;;;;20.22;19.82;102746.81;104440;1306;61320;-81
2022/03/21 11:28:24;;;;;;;;;;;;;;;20.25;19.70;102741.66;104396;1309;72707;-80
2022/03/21 11:30:56;;;;;;;;;;;;;;;20.20;19.61;102744.02;104445;1306;75945;-80
2022/03/21 11:33:25;;;;;;;;;;;;;;;20.20;19.73;102743.83;105312;1307;60445;-80
2022/03/21 11:35:51;;;;;;;;;;;;;;;20.30;19.69;102738.47;105291;1307;61456;-80
2022/03/21 11:38:30;;;;;;;;;;;;;;;20.39;19.75;102733.48;105212;1306;60779;-80
2022/03/21 11:41:09;;;;;;;;;;;;;;;20.49;19.83;102725.78;104721;1307;75619;-79
2022/03/21 11:43:37;;;;;;;;;;;;;;;20.57;19.92;102717.02;104885;1306;61242;-80
2022/03/21 11:46:27;;;;;;;;;;;;;;;20.62;19.93;102716.17;104275;1306;61357;-81
2022/03/21 11:48:53;;;;;;;;;;;;;;;20.48;19.72;102714.55;103781;1308;75086;-80
2022/03/21 11:51:19;;;;;;;;;;;;;;;20.49;19.70;102713.07;103842;1309;61827;-81
2022/03/21 11:53:45;;;;;;;;;;;;;;;20.40;19.44;102712.70;103735;1306;61323;-80
2022/03/21 11:56:16;;;;;;;;;;;;;;;20.17;19.28;102709.80;103680;1307;61371;-81
2022/03/21 11:58:45;;;;;;;;;;;;;;;19.92;19.08;102712.85;103717;1306;72702;-82
2022/03/21 12:01:37;;;;;;;;;;;;;;;19.70;19.03;102703.07;104402;1308;74713;-80
2022/03/21 12:04:21;;;;;;;;;;;;;;;19.56;18.78;102701.05;104250;1312;60169;-80
2022/03/21 12:06:49;;;;;;;;;;;;;;;19.51;18.65;102710.52;104215;1312;61428;-80
2022/03/21 12:09:14;;;;;;;;;;;;;;;19.47;18.70;102702.97;104025;1313;73198;-81
2022/03/21 12:11:40;;;;;;;;;;;;;;;19.41;18.68;102695.84;103957;1312;59777;-80
2022/03/21 12:14:25;;;;;;;;;;;;;;;19.22;18.47;102693.27;104012;1314;59547;-80
2022/03/21 12:17:05;;;;;;;;;;;;;;;18.97;18.27;102698.04;104960;1312;61443;-80
2022/03/21 12:19:57;;;;;;;;;;;;;;;18.85;18.06;102692.68;104926;1311;73785;-79
2022/03/21 12:22:37;;;;;;;;;;;;;;;18.85;18.17;102684.64;104189;1312;75931;-80
2022/03/21 12:25:05;;;;;;;;;;;;;;;19.03;18.32;102681.25;104068;1313;61189;-81
2022/03/21 12:27:38;;;;;;;;;;;;;;;19.19;18.50;102682.48;104120;1312;61336;-80
2022/03/21 12:30:42;;;;;;;;;;;;;;;19.33;18.47;102685.58;104180;1312;74085;-81
2022/03/21 12:33:27;;;;;;;;;;;;;;;19.50;18.65;102682.85;103074;1319;76012;-82
2022/03/21 12:36:06;;;;;;;;;;;;;;;19.64;18.74;102680.06;103373;1318;61098;-83
2022/03/21 12:38:36;;;;;;;;;;;;;;;19.71;18.78;102674.46;102808;1320;61580;-81
2022/03/21 12:41:04;;;;;;;;;;;;;;;19.75;18.94;102678.39;102943;1314;72925;-80
2022/03/21 12:43:45;;;;;;;;;;;;;;;19.81;18.84;102676.27;103319;1314;76855;-81
2022/03/21 12:46:16;;;;;;;;;;;;;;;19.82;19.04;102669.81;103652;1312;61202;-81
2022/03/21 12:48:54;;;;;;;;;;;;;;;19.85;19.14;102668.43;104196;1314;61462;-82
2022/03/21 12:51:26;;;;;;;;;;;;;;;19.85;19.12;102662.52;104058;1315;72956;-81
2022/03/21 12:53:56;;;;;;;;;;;;;;;19.67;18.83;102657.79;103670;1315;73693;-80
2022/03/21 12:56:22;;;;;;;;;;;;;;;19.52;18.90;102649.40;103759;1313;61314;-81
2022/03/21 12:58:49;;;;;;;;;;;;;;;19.58;18.93;102655.45;103713;1314;60698;-81
2022/03/21 13:01:15;;;;;;;;;;;;;;;19.60;18.95;102646.27;103708;1314;61300;-82
2022/03/21 13:03:40;;;;;;;;;;;;;;;19.64;19.18;102638.08;104244;1309;61324;-80
2022/03/21 13:11:30;;;;;;;;;;;;;;;19.98;19.60;102630.79;104365;1306;72640;-80
2022/03/21 13:14:00;;;;;;;;;;;;;;;20.08;19.73;102619.33;104632;1306;75983;-81
2022/03/21 13:16:28;;;;;;;;;;;;;;;20.24;20.02;102622.48;105368;1306;60080;-80
2022/03/21 13:18:54;;;;;;;;;;;;;;;20.38;20.12;102617.09;105109;1306;60736;-81
2022/03/21 13:21:20;;;;;;;;;;;;;;;20.51;20.26;102614.42;105164;1306;71717;-80
2022/03/21 13:23:47;;;;;;;;;;;;;;;20.65;20.46;102611.58;105388;1306;59310;-81